Tompkins Corners, New York
Current Conditions -  °F | °C
As of 1:45 PM on Saturday 25 Oct 2014 (Local Time) from KSWF Reporting Station
Scattered Clouds Scattered Clouds  
Wind Chill: 61°   Ceiling: Unl
Heat Index: 61°   Visibility: 20mi
Dew Point: 45°   Wind: 12mph
Humidity: 55%   Direction: 310°NW
Pressure: 29.74"   Gusts: 23mph
Location:  41.3969°N, 73.8382°W
Report Text: KSWF 251745Z 31010G20KT 20SM SCT080 16/07 A2974
Loading
Personal Weather Stations






























Interactive Weather Map
Tropical Storm Tracking
New forecast layout! Learn more

10-Day Weather Forecast

Advertisements
Track Severe Weather on mobile